Time;durP1;ratioP1;P1;durP2;ratioP2;P2;SDS_P1;SDS_P2;PMS_P1;PMS_P2;Temp;Humidity;BMP_temperature;BMP_pressure;BME280_temperature;BME280_humidity;BME280_pressure;Samples;Min_cycle;Max_cycle;Signal;HPM_P1;HPM_P2
2022/07/04 00:04:04;;;;;;;0.77;0.53;;;;;;;20.67;62.07;96858.75;10393337;28;20642;-20
2022/07/04 00:09:05;;;;;;;0.90;0.50;;;;;;;20.58;62.42;96871.53;10396230;28;20499;-20
2022/07/04 00:14:05;;;;;;;0.50;0.50;;;;;;;20.53;62.29;96875.78;10390933;28;20437;-21
2022/07/04 00:19:05;;;;;;;0.60;0.50;;;;;;;20.51;62.44;96891.91;10390363;28;20033;-20
2022/07/04 00:24:06;;;;;;;0.67;0.30;;;;;;;20.49;62.62;96879.22;10384911;28;20040;-21
2022/07/04 00:29:06;;;;;;;0.80;0.50;;;;;;;20.48;62.58;96871.59;10395806;28;20029;-21
2022/07/04 00:34:07;;;;;;;0.47;0.43;;;;;;;20.53;63.13;96874.94;10396623;28;20519;-21
2022/07/04 00:39:07;;;;;;;0.40;0.30;;;;;;;20.81;63.42;96895.13;10391477;28;20299;-21
2022/07/04 00:44:13;;;;;;;1.30;0.60;;;;;;;20.87;61.97;96904.47;10397264;28;20091;-21
2022/07/04 00:49:15;;;;;;;0.50;0.50;;;;;;;20.72;62.35;96896.88;10400883;28;20091;-22
2022/07/04 00:54:21;;;;;;;0.80;0.50;;;;;;;20.61;62.14;96903.72;10394344;28;20549;-21
2022/07/04 00:59:22;;;;;;;0.52;0.52;;;;;;;20.54;62.27;96908.00;10391622;28;20037;-22
2022/07/04 01:04:23;;;;;;;0.50;0.47;;;;;;;20.52;62.43;96909.72;10398651;28;20041;-21
2022/07/04 01:09:24;;;;;;;0.50;0.50;;;;;;;20.51;62.21;96928.38;10404184;28;20075;-21
2022/07/04 01:14:25;;;;;;;1.27;0.60;;;;;;;20.47;62.26;96921.59;10410789;28;20091;-21
2022/07/04 01:19:25;;;;;;;0.40;0.40;;;;;;;20.47;62.61;96900.41;10407069;28;20431;-21
2022/07/04 01:24:26;;;;;;;0.77;0.57;;;;;;;20.70;62.82;96909.63;10407842;28;20499;-23
2022/07/04 01:29:26;;;;;;;0.60;0.55;;;;;;;20.88;63.38;96906.97;10405132;28;20087;-21
2022/07/04 01:34:26;;;;;;;0.30;0.30;;;;;;;20.79;62.11;96907.00;10398026;28;20044;-20
2022/07/04 01:39:28;;;;;;;1.40;0.43;;;;;;;20.67;62.22;96907.09;10396274;28;20030;-21
2022/07/04 01:44:28;;;;;;;0.30;0.30;;;;;;;20.56;62.58;96915.63;10395096;28;20026;-21
2022/07/04 01:49:29;;;;;;;0.30;0.30;;;;;;;20.53;62.27;96906.31;10402498;28;20029;-21
2022/07/04 01:54:30;;;;;;;0.87;0.47;;;;;;;20.50;62.71;96918.19;10400542;28;20120;-23
2022/07/04 02:04:51;;;;;;;1.15;0.50;;;;;;;20.47;62.69;96908.88;10379580;28;20057;-22
2022/07/04 02:09:51;;;;;;;0.57;0.40;;;;;;;20.55;63.61;96927.50;10398190;28;20041;-21
2022/07/04 02:14:52;;;;;;;0.73;0.70;;;;;;;20.81;63.51;96937.53;10392024;28;20040;-22
2022/07/04 02:19:52;;;;;;;0.52;0.50;;;;;;;20.89;62.21;96951.09;10400739;28;20036;-21
2022/07/04 02:24:53;;;;;;;0.70;0.40;;;;;;;20.74;62.19;96957.09;10393588;28;20074;-20
2022/07/04 02:29:53;;;;;;;1.57;0.57;;;;;;;20.63;62.56;96965.63;10399530;28;20472;-21
2022/07/04 02:34:53;;;;;;;0.40;0.37;;;;;;;20.57;62.25;96973.28;10398106;28;20045;-22
2022/07/04 02:39:54;;;;;;;0.60;0.50;;;;;;;20.52;62.67;96973.31;10399586;28;20310;-20
2022/07/04 02:44:54;;;;;;;0.20;0.20;;;;;;;20.48;62.77;96958.88;10396709;28;20098;-21
2022/07/04 02:49:55;;;;;;;0.53;0.40;;;;;;;20.46;62.54;96950.44;10402711;28;20030;-21
2022/07/04 02:54:55;;;;;;;0.40;0.40;;;;;;;20.43;62.91;96953.00;10398341;28;20033;-21
2022/07/04 02:59:55;;;;;;;0.63;0.45;;;;;;;20.64;63.11;96940.16;10404034;28;20334;-22
2022/07/04 03:04:56;;;;;;;1.23;0.53;;;;;;;20.86;63.46;96951.09;10404173;28;20099;-21
2022/07/04 03:09:56;;;;;;;0.57;0.47;;;;;;;20.83;62.08;96943.47;10400486;28;20439;-20
2022/07/04 03:14:58;;;;;;;0.63;0.63;;;;;;;20.69;62.68;96942.69;10400325;28;20369;-21
2022/07/04 03:19:59;;;;;;;0.77;0.55;;;;;;;20.58;62.33;96958.03;10398439;28;20033;-22
2022/07/04 03:24:59;;;;;;;0.40;0.30;;;;;;;20.53;62.34;96957.19;10405725;28;20044;-21
2022/07/04 03:30:00;;;;;;;0.52;0.50;;;;;;;20.49;62.56;96947.91;10399285;28;20299;-21
2022/07/04 03:35:00;;;;;;;0.70;0.53;;;;;;;20.48;62.57;96953.81;10396879;28;20037;-21
2022/07/04 03:40:01;;;;;;;0.60;0.50;;;;;;;20.48;62.70;96953.81;10395906;28;20666;-20
2022/07/04 03:45:01;;;;;;;0.37;0.33;;;;;;;20.47;62.62;96943.66;10395411;28;20116;-21
2022/07/04 03:50:02;;;;;;;2.42;1.38;;;;;;;20.76;63.41;96940.13;10404252;28;20040;-21
2022/07/04 03:55:02;;;;;;;4.38;1.00;;;;;;;20.81;62.84;96928.19;10396505;28;20025;-21
2022/07/04 04:00:04;;;;;;;1.67;0.98;;;;;;;21.01;63.64;96936.59;10391392;28;20038;-21
2022/07/04 04:05:27;;;;;;;3.40;1.23;;;;;;;20.95;63.38;96926.47;10399148;28;20034;-22
2022/07/04 04:10:30;;;;;;;2.50;1.17;;;;;;;20.97;63.15;96929.81;10390762;28;20401;-21
2022/07/04 04:15:30;;;;;;;1.55;1.00;;;;;;;20.91;63.22;96950.25;10397718;28;20039;-20
2022/07/04 04:20:31;;;;;;;2.00;1.00;;;;;;;20.94;63.37;96955.31;10396300;28;20025;-20
2022/07/04 04:25:31;;;;;;;13.27;1.10;;;;;;;21.04;62.42;96963.75;10391827;28;20033;-22
2022/07/04 04:30:32;;;;;;;2.05;1.30;;;;;;;20.97;61.80;96955.28;10393587;28;20021;-22
2022/07/04 04:35:32;;;;;;;4.77;1.23;;;;;;;21.01;60.89;96962.06;10392322;28;20086;-21
2022/07/04 04:40:33;;;;;;;3.23;1.10;;;;;;;21.01;60.35;96967.16;10403514;28;20032;-22
2022/07/04 04:45:33;;;;;;;3.97;1.40;;;;;;;20.88;61.60;96970.59;10401425;28;20093;-21
2022/07/04 04:50:34;;;;;;;1.60;0.90;;;;;;;20.76;61.89;97015.59;10404933;28;20499;-20
2022/07/04 04:55:34;;;;;;;1.15;0.75;;;;;;;20.68;62.14;97043.63;10398915;28;20535;-21
2022/07/04 05:00:35;;;;;;;1.83;0.90;;;;;;;20.64;62.46;97067.38;10404018;28;20041;-20
2022/07/04 05:05:35;;;;;;;0.83;0.83;;;;;;;20.61;62.27;97082.66;10405707;28;20116;-22
2022/07/04 05:10:36;;;;;;;7.00;1.77;;;;;;;20.59;63.87;97068.25;10404501;28;20036;-22
2022/07/04 05:15:36;;;;;;;4.28;1.10;;;;;;;20.55;63.02;97047.06;10404282;28;20037;-22
2022/07/04 05:20:36;;;;;;;3.47;0.70;;;;;;;20.50;62.84;97043.69;10402180;28;20108;-20
2022/07/04 05:25:37;;;;;;;6.63;1.50;;;;;;;20.64;63.82;97026.66;10406905;28;20026;-21
2022/07/04 05:30:37;;;;;;;5.68;1.30;;;;;;;20.83;63.27;97023.22;10403878;28;20298;-21
2022/07/04 05:35:38;;;;;;;2.90;0.80;;;;;;;20.82;62.39;97006.22;10403828;28;20248;-21
2022/07/04 05:40:38;;;;;;;1.40;0.82;;;;;;;20.68;62.41;96997.84;10401168;28;20045;-21
2022/07/04 05:45:38;;;;;;;2.42;0.63;;;;;;;20.59;62.56;96984.28;10400346;28;20088;-21
2022/07/04 05:50:39;;;;;;;2.20;0.60;;;;;;;20.55;62.54;96980.91;10403015;28;20040;-21
2022/07/04 05:55:39;;;;;;;1.40;0.70;;;;;;;20.51;62.80;96973.31;10400802;28;20287;-21
2022/07/04 06:00:40;;;;;;;1.10;0.45;;;;;;;20.49;62.60;96950.44;10401701;28;20296;-21
2022/07/04 06:05:40;;;;;;;1.80;0.60;;;;;;;20.44;62.81;96931.78;10403964;28;20514;-21
2022/07/04 06:10:41;;;;;;;1.42;0.60;;;;;;;20.48;62.65;96933.44;10393929;28;20034;-21
2022/07/04 06:15:41;;;;;;;2.30;1.50;;;;;;;20.71;64.04;96951.19;10403299;28;20042;-21
2022/07/04 06:20:42;;;;;;;3.47;1.33;;;;;;;20.80;63.58;96956.22;10399783;28;20042;-21
2022/07/04 06:25:42;;;;;;;0.50;0.40;;;;;;;20.82;62.11;96954.50;10396420;28;20367;-22
2022/07/04 06:30:43;;;;;;;2.10;0.60;;;;;;;20.64;62.48;96967.31;10400080;28;20030;-20
2022/07/04 06:35:49;;;;;;;1.23;0.60;;;;;;;20.61;62.31;96973.25;10395795;28;20354;-21
2022/07/04 06:40:50;;;;;;;2.27;0.60;;;;;;;20.55;62.63;96983.47;10397433;28;20546;-22
2022/07/04 06:45:51;;;;;;;1.38;0.57;;;;;;;20.51;62.58;96978.38;10394689;28;20045;-21
2022/07/04 06:50:52;;;;;;;1.75;0.60;;;;;;;20.50;63.14;96987.72;10404641;28;20033;-22
2022/07/04 06:55:52;;;;;;;1.30;0.67;;;;;;;20.50;62.66;96979.25;10398366;28;20095;-22
2022/07/04 07:00:53;;;;;;;3.13;0.67;;;;;;;20.48;62.80;96984.31;10395515;28;20393;-21
2022/07/04 07:05:53;;;;;;;2.42;1.77;;;;;;;20.74;63.57;96977.47;10400074;28;20025;-21
2022/07/04 07:10:54;;;;;;;2.38;0.98;;;;;;;20.87;63.44;96968.94;10392118;28;20031;-20
2022/07/04 07:15:55;;;;;;;0.65;0.60;;;;;;;20.78;62.20;96979.13;10400185;28;20078;-21
2022/07/04 07:20:55;;;;;;;0.60;0.50;;;;;;;20.67;62.22;96991.06;10397299;28;20037;-22
2022/07/04 07:25:56;;;;;;;1.00;0.60;;;;;;;20.59;62.23;96992.78;10402654;28;20499;-22
2022/07/04 07:30:56;;;;;;;1.73;0.43;;;;;;;20.56;62.49;97005.50;10395512;28;20439;-21
2022/07/04 07:35:57;;;;;;;0.65;0.47;;;;;;;20.53;62.54;97002.13;10395228;28;20147;-21
2022/07/04 07:40:57;;;;;;;1.25;0.60;;;;;;;20.53;62.79;97002.97;10397916;28;20029;-21
2022/07/04 07:45:57;;;;;;;0.40;0.40;;;;;;;20.50;62.52;96997.91;10394921;28;20033;-21
2022/07/04 07:50:58;;;;;;;1.05;0.60;;;;;;;20.50;62.70;96987.72;10398888;28;20038;-22
2022/07/04 07:55:58;;;;;;;2.03;1.20;;;;;;;20.76;63.59;96990.16;10397488;28;20043;-23
2022/07/04 08:01:00;;;;;;;3.22;0.70;;;;;;;20.88;62.86;96978.25;10392179;28;20037;-22
2022/07/04 08:06:00;;;;;;;1.50;0.80;;;;;;;20.78;62.28;96974.03;10399374;28;20404;-20
2022/07/04 08:11:00;;;;;;;0.63;0.50;;;;;;;20.67;62.31;96975.78;10386412;28;20033;-22
2022/07/04 08:16:01;;;;;;;1.03;0.80;;;;;;;20.59;62.29;96957.16;10396784;28;20040;-20
2022/07/04 08:21:01;;;;;;;1.10;0.60;;;;;;;20.55;62.58;96955.47;10396353;28;20813;-22
2022/07/04 08:26:03;;;;;;;2.25;0.60;;;;;;;20.54;62.63;96948.69;10397082;28;20167;-22
2022/07/04 08:31:04;;;;;;;0.85;0.60;;;;;;;20.52;62.82;96950.41;10396967;28;20030;-22
2022/07/04 08:36:05;;;;;;;1.67;0.60;;;;;;;20.52;62.63;96949.56;10397029;28;20033;-21
2022/07/04 08:41:05;;;;;;;0.85;0.70;;;;;;;20.54;62.75;96945.31;10394771;28;20156;-20
2022/07/04 08:46:06;;;;;;;2.07;0.97;;;;;;;20.77;63.51;96940.94;10394893;28;20484;-20
2022/07/04 08:51:19;;;;;;;1.02;0.70;;;;;;;20.91;62.53;96951.94;10403709;28;20280;-20
2022/07/04 09:01:41;;;;;;;0.60;0.50;;;;;;;20.69;62.27;96942.69;10395403;28;20071;-21
2022/07/04 09:06:42;;;;;;;1.58;0.98;;;;;;;20.61;62.46;96955.44;10399648;28;20041;-20
2022/07/04 09:11:43;;;;;;;0.43;0.43;;;;;;;20.56;62.68;96962.25;10390341;28;20038;-21
2022/07/04 09:16:44;;;;;;;2.57;1.10;;;;;;;20.57;62.48;96953.75;10395909;28;20060;-22
2022/07/04 09:21:47;;;;;;;1.02;0.88;;;;;;;20.54;62.70;96946.16;10393484;28;20057;-20
2022/07/04 09:26:47;;;;;;;0.90;0.60;;;;;;;20.54;62.54;96938.53;10395595;28;20335;-20
2022/07/04 09:31:47;;;;;;;1.00;0.70;;;;;;;20.58;63.45;96937.69;10401848;28;20762;-21
2022/07/04 09:36:52;;;;;;;1.70;1.17;;;;;;;20.81;63.73;96935.00;10409089;28;20140;-20
2022/07/04 09:42:00;;;;;;;0.65;0.50;;;;;;;20.93;61.90;96942.59;10403701;28;20030;-20
2022/07/04 09:47:22;;;;;;;0.90;0.60;;;;;;;20.77;62.23;96946.91;10387749;28;20033;-22
2022/07/04 09:52:23;;;;;;;0.40;0.40;;;;;;;20.68;62.29;96946.09;10403867;28;20031;-21
2022/07/04 09:57:23;;;;;;;0.70;0.70;;;;;;;20.63;62.51;96943.56;10395455;28;20036;-20
2022/07/04 10:02:24;;;;;;;0.63;0.50;;;;;;;20.60;62.76;96948.69;10402775;28;20034;-23
2022/07/04 10:07:35;;;;;;;3.20;0.70;;;;;;;20.58;62.70;96939.34;10401647;28;20056;-21
2022/07/04 10:12:36;;;;;;;3.50;0.70;;;;;;;20.55;62.65;96945.31;10391382;28;20370;-22
2022/07/04 10:17:36;;;;;;;1.37;0.77;;;;;;;20.54;62.70;96940.25;10403755;28;20037;-21
2022/07/04 10:22:37;;;;;;;2.25;0.93;;;;;;;20.63;63.24;96940.19;10392803;28;20048;-21
2022/07/04 10:27:38;;;;;;;1.45;1.05;;;;;;;20.86;63.37;96944.34;10402705;28;20033;-21
2022/07/04 10:32:42;;;;;;;4.10;0.65;;;;;;;20.93;61.83;96947.66;10402287;28;20025;-21
2022/07/04 10:38:07;;;;;;;1.05;0.68;;;;;;;20.78;62.25;96947.72;10399933;28;20400;-20
2022/07/04 10:43:30;;;;;;;4.38;0.70;;;;;;;20.63;62.58;96938.47;10400054;28;20065;-21
2022/07/04 10:48:30;;;;;;;1.65;0.93;;;;;;;20.57;62.66;96946.13;10393509;28;20041;-21
2022/07/04 10:53:52;;;;;;;1.67;1.08;;;;;;;20.55;62.81;96952.94;10392408;28;20451;-23
2022/07/04 10:58:54;;;;;;;3.55;1.30;;;;;;;20.52;62.94;96945.31;10381103;28;20109;-21
2022/07/04 11:03:54;;;;;;;1.25;1.05;;;;;;;20.51;63.41;96948.72;10390446;28;20029;-21
2022/07/04 11:09:16;;;;;;;3.67;1.10;;;;;;;20.49;63.05;96945.34;10398858;28;20025;-22
2022/07/04 11:14:29;;;;;;;1.63;0.98;;;;;;;20.75;63.06;96935.88;10389658;28;20029;-21
2022/07/04 11:19:30;;;;;;;2.22;1.40;;;;;;;20.89;63.20;96921.38;10396498;28;20497;-21
2022/07/04 11:24:33;;;;;;;2.15;1.15;;;;;;;20.88;62.09;96922.25;10399387;28;20041;-21
2022/07/04 11:29:34;;;;;;;3.55;1.40;;;;;;;20.71;62.53;96921.47;10395668;28;20040;-23
2022/07/04 11:34:34;;;;;;;3.50;1.50;;;;;;;20.63;62.73;96925.75;10388825;28;20124;-21
2022/07/04 11:39:35;;;;;;;4.45;1.20;;;;;;;20.59;62.84;96913.91;10394740;28;20047;-20
2022/07/04 11:49:58;;;;;;;1.83;1.00;;;;;;;20.55;62.83;96904.59;10389107;28;20118;-20
2022/07/04 11:54:58;;;;;;;4.50;1.20;;;;;;;20.54;63.42;96902.09;10401154;28;20046;-23
2022/07/04 12:00:20;;;;;;;3.03;1.50;;;;;;;20.46;63.17;96898.72;10397052;28;20042;-23
2022/07/04 12:05:20;;;;;;;1.55;1.40;;;;;;;20.81;63.42;96907.84;10389310;28;20056;-22
2022/07/04 12:10:24;;;;;;;2.43;1.30;;;;;;;20.95;63.59;96901.00;10395047;28;20026;-20
2022/07/04 12:15:43;;;;;;;2.30;1.00;;;;;;;20.85;62.56;96904.44;10393553;28;20500;-20
2022/07/04 12:20:44;;;;;;;2.08;1.05;;;;;;;20.73;62.52;96888.41;10390722;28;20048;-19
2022/07/04 12:25:50;;;;;;;2.10;1.10;;;;;;;20.61;62.81;96874.06;10399344;28;20041;-20
2022/07/04 12:30:56;;;;;;;1.38;0.80;;;;;;;20.53;62.83;96860.53;10396475;28;20410;-21
2022/07/04 12:36:04;;;;;;;5.50;1.40;;;;;;;20.61;63.53;96857.91;10391534;28;20040;-20
2022/07/04 12:41:12;;;;;;;8.25;1.70;;;;;;;20.59;63.73;96849.47;10399910;28;20061;-21
2022/07/04 12:46:28;;;;;;;8.00;1.40;;;;;;;20.60;63.58;96848.59;10389650;28;20030;-22
2022/07/04 12:51:33;;;;;;;9.73;2.10;;;;;;;20.63;64.30;96840.97;10396170;28;20034;-20
2022/07/04 12:56:35;;;;;;;6.60;1.60;;;;;;;20.85;63.71;96829.78;10392584;28;20037;-21
2022/07/04 13:01:36;;;;;;;2.10;1.02;;;;;;;21.01;63.11;96839.88;10402844;28;20037;-19
2022/07/04 13:06:38;;;;;;;5.78;1.38;;;;;;;20.85;63.02;96838.25;10399623;28;20381;-20
2022/07/04 13:16:57;;;;;;;4.38;1.73;;;;;;;20.65;63.02;96850.25;10405271;28;20511;-20
2022/07/04 13:21:58;;;;;;;8.30;1.23;;;;;;;20.64;63.15;96843.50;10398735;28;20087;-21
2022/07/04 13:26:58;;;;;;;2.63;1.20;;;;;;;20.60;63.63;96846.91;10402942;28;20028;-20
2022/07/04 13:31:58;;;;;;;7.35;2.15;;;;;;;20.58;63.63;96843.56;10390568;28;20802;-21
2022/07/04 13:36:59;;;;;;;4.15;1.77;;;;;;;20.60;63.50;96830.78;10400394;28;20057;-23
2022/07/04 13:42:01;;;;;;;2.77;1.27;;;;;;;20.62;63.73;96835.03;10392383;28;20088;-20
2022/07/04 13:47:01;;;;;;;5.55;1.35;;;;;;;20.90;63.53;96828.91;10397230;28;20463;-19
2022/07/04 13:52:02;;;;;;;2.23;1.00;;;;;;;21.00;63.46;96833.09;10407827;28;20038;-19
2022/07/04 13:57:02;;;;;;;5.55;1.60;;;;;;;20.82;62.89;96830.63;10398545;28;20459;-20
2022/07/04 14:02:03;;;;;;;4.25;1.40;;;;;;;20.74;62.98;96840.06;10397350;28;20094;-19
2022/07/04 14:07:03;;;;;;;7.97;2.00;;;;;;;20.68;63.11;96839.22;10397909;28;20069;-20
2022/07/04 14:12:04;;;;;;;7.07;4.13;;;;;;;20.66;63.12;96846.03;10396963;28;20658;-19
2022/07/04 14:17:05;;;;;;;5.20;2.72;;;;;;;20.63;63.39;96851.97;10394044;28;20317;-20
2022/07/04 14:22:05;;;;;;;5.67;1.77;;;;;;;20.64;63.46;96847.75;10394264;28;20037;-20
2022/07/04 14:27:05;;;;;;;2.53;1.37;;;;;;;20.63;63.22;96846.88;10401154;28;20713;-20
2022/07/04 14:32:07;;;;;;;2.27;1.43;;;;;;;20.63;63.33;96846.06;10391618;28;20025;-22
2022/07/04 14:37:07;;;;;;;3.95;1.35;;;;;;;20.90;64.75;96840.81;10397281;28;20021;-21
2022/07/04 14:42:08;;;;;;;2.60;1.20;;;;;;;21.02;63.60;96831.38;10396714;28;20285;-21
2022/07/04 14:47:08;;;;;;;2.20;1.30;;;;;;;20.86;62.73;96829.81;10396442;28;20025;-22
2022/07/04 14:52:09;;;;;;;1.57;1.40;;;;;;;20.75;63.00;96818.84;10395511;28;20371;-20
2022/07/04 14:57:09;;;;;;;2.67;1.60;;;;;;;20.70;63.08;96819.69;10388635;28;20052;-20
2022/07/04 15:02:10;;;;;;;6.05;1.60;;;;;;;20.65;63.13;96824.81;10393747;28;20305;-20
2022/07/04 15:07:10;;;;;;;6.70;1.40;;;;;;;20.65;64.80;96824.00;10393237;28;20170;-20
2022/07/04 15:12:11;;;;;;;1.92;1.23;;;;;;;20.61;64.55;96813.00;10398490;28;20025;-22
2022/07/04 15:17:11;;;;;;;1.70;1.17;;;;;;;20.59;64.27;96804.53;10391040;28;20040;-20
2022/07/04 15:27:30;;;;;;;1.60;1.00;;;;;;;20.91;63.82;96797.53;10398755;28;20056;-20
2022/07/04 15:32:30;;;;;;;5.63;1.40;;;;;;;21.04;64.20;96794.00;10387179;28;20037;-20
2022/07/04 15:37:31;;;;;;;5.93;1.17;;;;;;;20.93;63.42;96785.63;10390086;28;20125;-22
2022/07/04 15:42:31;;;;;;;2.40;1.00;;;;;;;20.99;63.05;96800.84;10396409;28;20671;-20
2022/07/04 15:47:32;;;;;;;2.47;1.27;;;;;;;20.92;63.07;96806.84;10391842;28;20044;-20
2022/07/04 15:52:32;;;;;;;1.60;0.90;;;;;;;20.88;62.99;96807.72;10391564;28;20485;-21
2022/07/04 15:57:32;;;;;;;2.00;1.17;;;;;;;20.86;63.15;96809.44;10391875;28;20044;-21
2022/07/04 16:02:33;;;;;;;1.53;1.07;;;;;;;20.85;63.38;96823.00;10396634;28;20079;-21
2022/07/04 16:07:35;;;;;;;1.33;1.08;;;;;;;20.84;63.39;96818.78;10391400;28;20300;-21
2022/07/04 16:12:35;;;;;;;1.85;1.30;;;;;;;20.84;63.30;96821.31;10399090;28;20026;-21
2022/07/04 16:17:37;;;;;;;3.42;1.30;;;;;;;21.03;63.52;96822.88;10394840;28;20539;-22
2022/07/04 16:22:37;;;;;;;2.00;1.20;;;;;;;21.08;63.12;96816.06;10399495;28;20037;-21
2022/07/04 16:27:38;;;;;;;4.47;1.00;;;;;;;21.00;62.81;96822.91;10401519;28;20489;-20
2022/07/04 16:32:38;;;;;;;2.10;0.90;;;;;;;20.95;62.99;96819.56;10389713;28;20029;-21
2022/07/04 16:37:39;;;;;;;3.30;1.42;;;;;;;20.94;62.73;96820.41;10387028;28;20038;-18
2022/07/04 16:42:39;;;;;;;2.10;0.80;;;;;;;20.91;62.85;96811.94;10391244;28;20041;-20
2022/07/04 16:47:39;;;;;;;1.07;0.70;;;;;;;20.92;62.67;96799.22;10395333;28;20042;-20
2022/07/04 16:52:40;;;;;;;2.47;1.00;;;;;;;20.91;62.82;96815.34;10387421;28;20108;-22
2022/07/04 16:57:40;;;;;;;2.20;1.03;;;;;;;20.93;62.90;96830.59;10390044;28;20029;-21
2022/07/04 17:02:40;;;;;;;6.60;1.57;;;;;;;20.92;62.96;96844.19;10393587;28;20087;-20
2022/07/04 17:07:41;;;;;;;7.13;1.40;;;;;;;21.10;63.49;96831.28;10390937;28;20303;-22
2022/07/04 17:12:42;;;;;;;7.37;1.27;;;;;;;21.20;63.32;96841.41;10393796;28;20116;-22
2022/07/04 17:17:42;;;;;;;39.95;4.57;;;;;;;21.05;62.93;96835.59;10392706;28;20036;-21
2022/07/04 17:22:42;;;;;;;5.73;1.30;;;;;;;20.99;62.48;96844.09;10394069;28;20421;-21
2022/07/04 17:27:43;;;;;;;3.10;1.07;;;;;;;20.95;62.69;96852.63;10400683;28;20295;-20
2022/07/04 17:32:43;;;;;;;6.13;1.40;;;;;;;20.95;62.64;96859.41;10389352;28;20043;-21
2022/07/04 17:37:44;;;;;;;3.50;1.20;;;;;;;20.93;62.76;96859.44;10386116;28;20133;-20
2022/07/04 17:42:45;;;;;;;4.75;1.17;;;;;;;20.95;62.89;96865.38;10385822;28;20296;-22
2022/07/04 17:47:45;;;;;;;4.82;1.13;;;;;;;20.92;63.07;96884.91;10396718;28;20172;-21
2022/07/04 17:52:45;;;;;;;2.93;1.30;;;;;;;21.04;64.50;96872.09;10394588;28;20451;-20
2022/07/04 17:57:46;;;;;;;5.17;1.27;;;;;;;21.19;63.91;96870.28;10396837;28;20087;-21
2022/07/04 18:02:46;;;;;;;6.13;1.40;;;;;;;21.08;62.78;96866.13;10390043;28;20467;-20
2022/07/04 18:07:46;;;;;;;2.50;0.97;;;;;;;20.95;62.86;96865.38;10401507;28;20037;-21
2022/07/04 18:12:47;;;;;;;1.70;1.17;;;;;;;20.95;63.30;96865.38;10394836;28;20034;-20
2022/07/04 18:17:47;;;;;;;4.77;1.13;;;;;;;20.93;63.20;96867.09;10399084;28;20041;-21
2022/07/04 18:22:47;;;;;;;4.13;1.20;;;;;;;20.94;64.76;96856.03;10404476;28;20045;-20
2022/07/04 18:27:48;;;;;;;2.77;1.13;;;;;;;20.89;63.29;96860.31;10396306;28;20533;-20
2022/07/04 18:32:48;;;;;;;4.10;1.73;;;;;;;20.88;63.21;96868.81;10396616;28;20403;-20
2022/07/04 18:37:49;;;;;;;3.28;1.10;;;;;;;20.86;63.03;96870.53;10397226;28;20403;-22
2022/07/04 18:48:08;;;;;;;2.38;1.42;;;;;;;21.13;63.95;96856.75;10392706;28;20042;-21
2022/07/04 18:53:08;;;;;;;3.70;1.37;;;;;;;21.08;62.76;96866.97;10397505;28;20412;-21
2022/07/04 18:58:09;;;;;;;2.50;1.17;;;;;;;20.99;62.67;96861.94;10391280;28;20044;-20
2022/07/04 19:03:11;;;;;;;1.20;1.05;;;;;;;20.91;62.81;96866.25;10395244;28;20497;-20
2022/07/04 19:08:12;;;;;;;1.50;1.00;;;;;;;20.91;63.13;96883.22;10401707;28;20399;-20
2022/07/04 19:13:13;;;;;;;1.40;0.95;;;;;;;20.89;62.98;96883.22;10394342;28;20036;-20
2022/07/04 19:18:13;;;;;;;1.08;0.95;;;;;;;20.88;63.05;96881.53;10398308;28;20474;-22
2022/07/04 19:23:14;;;;;;;2.50;1.15;;;;;;;20.87;63.21;96892.56;10399310;28;20420;-21
2022/07/04 19:28:14;;;;;;;1.23;0.90;;;;;;;20.88;63.11;96893.44;10391837;28;20377;-21
2022/07/04 19:33:14;;;;;;;3.00;1.30;;;;;;;20.95;64.05;96893.38;10391169;28;20419;-22
2022/07/04 19:38:15;;;;;;;2.20;1.43;;;;;;;21.15;64.02;96909.31;10392307;28;20063;-20
2022/07/04 19:43:15;;;;;;;1.07;0.97;;;;;;;21.16;62.73;96910.19;10394950;28;20297;-20
2022/07/04 19:48:16;;;;;;;1.42;0.90;;;;;;;20.94;62.78;96919.69;10396638;28;20296;-20
2022/07/04 19:53:16;;;;;;;1.95;0.80;;;;;;;20.91;62.75;96927.34;10393657;28;20052;-21
2022/07/04 19:58:17;;;;;;;1.77;1.00;;;;;;;20.88;63.21;96923.97;10394015;28;20033;-20
2022/07/04 20:03:17;;;;;;;2.53;0.80;;;;;;;20.87;63.15;96932.47;10385418;28;20656;-20
2022/07/04 20:08:18;;;;;;;1.00;0.77;;;;;;;20.84;63.05;96937.53;10396480;28;20030;-21
2022/07/04 20:13:18;;;;;;;1.35;1.00;;;;;;;20.87;64.60;96943.47;10388279;28;20902;-21
2022/07/04 20:18:19;;;;;;;1.77;0.90;;;;;;;20.82;63.14;96940.06;10378055;28;20744;-20
2022/07/04 20:23:20;;;;;;;1.52;0.90;;;;;;;20.92;63.84;96944.31;10388725;28;20786;-21
2022/07/04 20:28:20;;;;;;;3.67;1.50;;;;;;;21.16;63.73;96945.84;10391677;28;20041;-20
2022/07/04 20:33:21;;;;;;;3.03;0.97;;;;;;;21.19;62.46;96945.81;10386301;28;20028;-21
2022/07/04 20:38:21;;;;;;;1.27;0.85;;;;;;;20.97;62.91;96940.00;10390385;28;20378;-20
2022/07/04 20:43:21;;;;;;;1.67;0.80;;;;;;;20.90;62.76;96940.06;10379200;28;20056;-20
2022/07/04 20:48:22;;;;;;;1.00;0.90;;;;;;;20.88;62.84;96949.41;10393301;28;20297;-20
2022/07/04 20:53:23;;;;;;;2.10;0.90;;;;;;;20.85;63.21;96950.25;10390595;28;20036;-22
2022/07/04 20:58:23;;;;;;;1.85;1.05;;;;;;;20.84;64.38;96950.25;10390329;28;20376;-21
2022/07/04 21:03:23;;;;;;;2.63;0.90;;;;;;;20.90;63.00;96952.78;10395111;28;20029;-20
2022/07/04 21:08:24;;;;;;;1.17;0.77;;;;;;;20.88;63.17;96960.44;10389201;28;20034;-20
2022/07/04 21:13:24;;;;;;;2.90;1.30;;;;;;;20.93;63.94;96958.72;10389249;28;20216;-20
2022/07/04 21:18:24;;;;;;;1.70;1.40;;;;;;;21.14;64.43;96960.28;10388100;28;20038;-21
2022/07/04 21:23:25;;;;;;;0.87;0.70;;;;;;;21.19;62.59;96961.94;10401110;28;20296;-22
2022/07/04 21:28:25;;;;;;;2.27;1.03;;;;;;;20.99;62.70;96968.84;10398698;28;20314;-21
2022/07/04 21:33:26;;;;;;;1.92;0.75;;;;;;;20.92;62.42;96967.22;10399375;28;20038;-22
2022/07/04 21:38:28;;;;;;;1.00;0.63;;;;;;;20.88;62.93;96972.31;10392931;28;20030;-22
2022/07/04 21:43:28;;;;;;;1.02;0.93;;;;;;;20.85;63.10;96968.06;10386287;28;20041;-22
2022/07/04 21:48:28;;;;;;;0.83;0.70;;;;;;;20.79;62.99;96957.06;10389221;28;20036;-22
2022/07/04 21:53:29;;;;;;;1.27;0.90;;;;;;;20.83;63.25;96967.22;10390216;28;20759;-22
2022/07/04 21:58:30;;;;;;;1.02;0.90;;;;;;;20.81;63.22;96971.47;10393993;28;20037;-20
2022/07/04 22:03:30;;;;;;;1.63;0.90;;;;;;;20.88;64.07;96965.53;10397190;28;20106;-23
2022/07/04 22:08:31;;;;;;;2.58;1.30;;;;;;;21.11;65.05;96966.22;10393202;28;20030;-20
2022/07/04 22:13:32;;;;;;;1.10;1.00;;;;;;;21.19;62.55;96971.25;10398838;28;20030;-22
2022/07/04 22:18:32;;;;;;;0.93;0.70;;;;;;;20.99;62.69;96979.03;10393380;28;20120;-20
2022/07/04 22:23:33;;;;;;;0.80;0.80;;;;;;;20.91;62.94;96987.56;10390558;28;20520;-20
2022/07/04 22:28:33;;;;;;;0.60;0.60;;;;;;;20.86;62.82;96985.06;10401247;28;20729;-21
2022/07/04 22:33:33;;;;;;;1.00;0.60;;;;;;;20.84;63.21;96989.28;10391342;28;20292;-20
2022/07/04 22:38:34;;;;;;;1.77;0.70;;;;;;;20.83;63.12;96989.28;10388643;28;20029;-20
2022/07/04 22:43:34;;;;;;;2.23;0.80;;;;;;;20.82;62.96;96985.88;10391953;28;20034;-20
2022/07/04 22:48:34;;;;;;;0.97;0.77;;;;;;;20.79;63.16;96988.44;10392015;28;20033;-22
2022/07/04 22:58:54;;;;;;;2.28;1.60;;;;;;;21.09;64.44;96980.69;10397297;28;20052;-21
2022/07/04 23:03:55;;;;;;;0.45;0.45;;;;;;;21.18;62.05;96992.50;10394203;28;20029;-21
2022/07/04 23:08:55;;;;;;;1.23;0.80;;;;;;;20.98;62.64;96995.16;10391182;28;20527;-20
2022/07/04 23:13:55;;;;;;;0.70;0.70;;;;;;;20.89;62.76;96997.75;10389318;28;20095;-21
2022/07/04 23:18:56;;;;;;;0.70;0.70;;;;;;;20.83;62.89;96987.59;10399982;28;20029;-21
2022/07/04 23:23:56;;;;;;;0.60;0.60;;;;;;;20.83;62.92;96994.38;10396498;28;20025;-21
2022/07/04 23:28:56;;;;;;;2.58;0.90;;;;;;;20.80;62.71;96994.38;10400099;28;20017;-20
2022/07/04 23:33:57;;;;;;;1.13;0.80;;;;;;;20.79;63.18;97005.44;10392672;28;20079;-23
2022/07/04 23:38:57;;;;;;;1.07;0.97;;;;;;;20.79;63.23;96996.06;10392784;28;20427;-20
2022/07/04 23:43:58;;;;;;;3.10;1.20;;;;;;;20.89;63.83;96997.75;10387016;28;20334;-20
2022/07/04 23:48:58;;;;;;;3.25;1.48;;;;;;;21.18;63.76;96995.91;10398456;28;20029;-21
2022/07/04 23:53:58;;;;;;;0.50;0.50;;;;;;;21.19;62.36;96986.53;10402095;28;20108;-21
2022/07/04 23:58:59;;;;;;;1.60;0.63;;;;;;;20.97;62.70;96992.63;10404740;28;20424;-22
